createdAt,value
2018-08-25T00:00:39.691Z,13.37
2018-08-25T00:03:08.391Z,15.23
2018-08-25T00:05:37.110Z,15.63
2018-08-25T00:08:05.558Z,13.27
2018-08-25T00:10:34.123Z,11.67
2018-08-25T00:13:02.674Z,15.77
2018-08-25T00:15:31.679Z,14.97
2018-08-25T00:18:00.078Z,13.73
2018-08-25T00:20:28.631Z,13.17
2018-08-25T00:22:57.179Z,12.97
2018-08-25T00:25:25.710Z,13.67
2018-08-25T00:27:54.143Z,16.63
2018-08-25T00:30:27.855Z,12.00
2018-08-25T00:32:56.357Z,11.53
2018-08-25T00:35:24.836Z,13.87
2018-08-25T00:37:54.175Z,11.97
2018-08-25T00:40:22.608Z,12.37
2018-08-25T00:42:51.204Z,13.17
2018-08-25T00:45:19.654Z,14.37
2018-08-25T00:47:48.125Z,13.03
2018-08-25T00:50:16.533Z,12.10
2018-08-25T00:52:45.032Z,13.83
2018-08-25T00:55:13.477Z,12.70
2018-08-25T00:57:41.872Z,13.17
2018-08-25T01:00:10.385Z,13.33
2018-08-25T01:02:38.887Z,13.10
2018-08-25T01:05:07.667Z,15.37
2018-08-25T01:07:36.131Z,12.73
2018-08-25T01:10:04.617Z,14.73
2018-08-25T01:12:33.347Z,10.90
2018-08-25T01:15:01.820Z,11.20
2018-08-25T01:17:30.501Z,12.87
2018-08-25T01:19:59.262Z,13.10
2018-08-25T01:22:27.968Z,15.00
2018-08-25T01:24:56.409Z,11.33
2018-08-25T01:27:24.857Z,12.07
2018-08-25T01:29:53.341Z,12.17
2018-08-25T01:32:21.768Z,14.27
2018-08-25T01:34:50.287Z,11.30
2018-08-25T01:37:18.677Z,13.07
2018-08-25T01:39:47.197Z,11.07
2018-08-25T01:42:15.648Z,11.13
2018-08-25T01:44:44.127Z,12.83
2018-08-25T01:47:12.629Z,14.17
2018-08-25T01:49:41.155Z,12.40
2018-08-25T01:52:09.679Z,12.30
2018-08-25T01:54:38.115Z,12.73
2018-08-25T01:57:06.544Z,12.43
2018-08-25T01:59:35.077Z,12.10
2018-08-25T02:02:03.969Z,11.80
2018-08-25T02:04:32.394Z,14.60
2018-08-25T02:07:00.840Z,11.90
2018-08-25T02:09:29.331Z,12.67
2018-08-25T02:11:57.932Z,12.33
2018-08-25T02:14:26.691Z,14.07
2018-08-25T02:16:55.187Z,15.20
2018-08-25T02:19:23.681Z,13.50
2018-08-25T02:21:52.165Z,11.33
2018-08-25T02:24:20.624Z,14.87
2018-08-25T02:26:49.054Z,12.90
2018-08-25T02:29:17.553Z,13.27
2018-08-25T02:31:46.255Z,12.10
2018-08-25T02:34:14.746Z,13.17
2018-08-25T02:36:43.179Z,13.73
2018-08-25T02:39:13.308Z,14.00
2018-08-25T02:41:42.622Z,13.33
2018-08-25T02:44:11.215Z,12.03
2018-08-25T02:46:39.702Z,12.03
2018-08-25T02:49:08.208Z,12.40
2018-08-25T02:51:36.669Z,12.37
2018-08-25T02:54:05.182Z,12.23
2018-08-25T02:56:33.601Z,13.50
2018-08-25T02:59:02.043Z,13.50
2018-08-25T03:01:30.497Z,17.10
2018-08-25T03:03:58.914Z,14.43
2018-08-25T03:06:27.373Z,14.07
2018-08-25T03:08:55.813Z,11.87
2018-08-25T03:11:24.219Z,13.40
2018-08-25T03:13:52.659Z,16.10
2018-08-25T03:16:21.064Z,15.73
2018-08-25T03:18:49.554Z,16.03
2018-08-25T03:21:18.663Z,14.37
2018-08-25T03:23:47.077Z,13.13
2018-08-25T03:26:15.552Z,17.80
2018-08-25T03:28:43.969Z,14.13
2018-08-25T03:31:12.514Z,12.90
2018-08-25T03:33:40.945Z,13.87
2018-08-25T03:36:09.369Z,14.13
2018-08-25T03:38:37.818Z,17.50
2018-08-25T03:41:06.902Z,15.37
2018-08-25T03:43:35.433Z,17.70
2018-08-25T03:46:03.883Z,15.10
2018-08-25T03:48:32.341Z,14.27
2018-08-25T03:51:02.507Z,14.87
2018-08-25T03:53:30.901Z,15.83
2018-08-25T03:55:59.503Z,13.57
2018-08-25T03:58:28.078Z,16.47
2018-08-25T04:00:56.506Z,13.93
2018-08-25T04:03:24.958Z,13.60
2018-08-25T04:05:53.404Z,13.10
2018-08-25T04:08:22.164Z,13.77
2018-08-25T04:10:50.589Z,13.33
2018-08-25T04:13:18.994Z,13.60
2018-08-25T04:15:47.520Z,12.50
2018-08-25T04:18:15.924Z,13.67
2018-08-25T04:20:44.420Z,14.37
2018-08-25T04:23:12.828Z,13.73
2018-08-25T04:25:41.215Z,13.27
2018-08-25T04:28:09.614Z,13.23
2018-08-25T04:30:38.041Z,15.20
2018-08-25T04:33:06.491Z,13.50
2018-08-25T04:35:35.014Z,14.93
2018-08-25T04:38:03.463Z,14.30
2018-08-25T04:40:31.867Z,13.37
2018-08-25T04:43:00.320Z,14.83
2018-08-25T04:45:28.733Z,14.63
2018-08-25T04:47:57.211Z,13.37
2018-08-25T04:50:25.790Z,15.27
2018-08-25T04:52:54.162Z,13.90
2018-08-25T04:55:22.603Z,14.80
2018-08-25T04:57:51.010Z,11.83
2018-08-25T05:00:19.839Z,12.67
2018-08-25T05:02:48.338Z,13.60
2018-08-25T05:05:16.823Z,15.30
2018-08-25T05:07:45.368Z,14.23
2018-08-25T05:10:13.772Z,14.00
2018-08-25T05:12:42.154Z,13.17
2018-08-25T05:15:10.636Z,14.53
2018-08-25T05:17:39.084Z,13.30
2018-08-25T05:20:07.618Z,14.23
2018-08-25T05:22:36.046Z,13.40
2018-08-25T05:25:04.625Z,13.70
2018-08-25T05:27:33.126Z,12.53
2018-08-25T05:30:01.553Z,13.67
2018-08-25T05:32:29.961Z,12.73
2018-08-25T05:34:58.424Z,13.73
2018-08-25T05:37:26.954Z,13.57
2018-08-25T05:39:55.416Z,13.33
2018-08-25T05:42:23.814Z,12.47
2018-08-25T05:44:52.323Z,13.57
2018-08-25T05:47:20.853Z,13.83
2018-08-25T05:49:49.293Z,13.73
2018-08-25T05:52:17.723Z,13.93
2018-08-25T05:54:46.111Z,12.30
2018-08-25T05:57:14.590Z,15.10
2018-08-25T05:59:43.177Z,15.57
2018-08-25T06:02:11.689Z,16.43
2018-08-25T06:04:40.199Z,12.87
2018-08-25T06:07:08.652Z,15.57
2018-08-25T06:09:37.074Z,14.73
2018-08-25T06:12:05.540Z,15.13
2018-08-25T06:14:33.950Z,13.70
2018-08-25T06:17:02.403Z,12.03
2018-08-25T06:19:30.832Z,15.30
2018-08-25T06:21:59.227Z,13.83
2018-08-25T06:24:27.717Z,15.43
2018-08-25T06:26:56.241Z,11.97
2018-08-25T06:29:24.703Z,14.83
2018-08-25T06:31:53.147Z,16.17
2018-08-25T06:34:21.721Z,16.90
2018-08-25T06:36:50.317Z,15.30
2018-08-25T06:39:19.565Z,13.13
2018-08-25T06:41:48.044Z,13.83
2018-08-25T06:44:16.493Z,12.53
2018-08-25T06:46:44.939Z,11.90
2018-08-25T06:49:13.301Z,11.93
2018-08-25T06:51:41.721Z,10.37
2018-08-25T06:54:10.162Z,13.17
2018-08-25T06:56:38.652Z,10.97
2018-08-25T06:59:07.078Z,10.17
2018-08-25T07:01:35.553Z,11.77
2018-08-25T07:04:03.989Z,11.17
2018-08-25T07:06:32.392Z,14.00
2018-08-25T07:09:00.971Z,10.87
2018-08-25T07:11:29.350Z,14.60
2018-08-25T07:13:57.849Z,11.50
2018-08-25T07:16:26.432Z,12.43
2018-08-25T07:18:54.910Z,11.80
2018-08-25T07:21:23.327Z,12.60
2018-08-25T07:23:51.803Z,17.50
2018-08-25T07:26:20.345Z,11.00
2018-08-25T07:28:48.737Z,13.77
2018-08-25T07:31:17.429Z,11.10
2018-08-25T07:33:46.095Z,11.97
2018-08-25T07:36:14.756Z,9.73
2018-08-25T07:38:43.203Z,11.97
2018-08-25T07:41:11.603Z,10.60
2018-08-25T07:43:40.104Z,13.00
2018-08-25T07:46:08.578Z,9.73
2018-08-25T07:48:37.061Z,13.90
2018-08-25T07:51:05.654Z,11.60
2018-08-25T07:53:34.286Z,20.93
2018-08-25T07:56:02.889Z,10.07
2018-08-25T07:58:31.559Z,9.67
2018-08-25T08:01:00.445Z,8.50
2018-08-25T08:03:29.161Z,10.57
2018-08-25T08:05:57.643Z,9.73
2018-08-25T08:08:26.207Z,15.27
2018-08-25T08:10:54.846Z,7.80
2018-08-25T08:13:23.482Z,11.10
2018-08-25T08:15:51.983Z,9.40
2018-08-25T08:18:21.316Z,10.73
2018-08-25T08:20:49.964Z,10.33
2018-08-25T08:23:18.404Z,9.67
2018-08-25T08:25:46.895Z,12.83
2018-08-25T08:28:15.353Z,8.63
2018-08-25T08:30:43.810Z,10.13
2018-08-25T08:33:12.400Z,13.23
2018-08-25T08:35:40.849Z,10.63
2018-08-25T08:38:09.433Z,10.37
2018-08-25T08:40:38.030Z,12.17
2018-08-25T08:43:06.493Z,9.63
2018-08-25T08:45:35.031Z,8.63
2018-08-25T08:48:03.508Z,9.27
2018-08-25T08:50:32.179Z,9.87
2018-08-25T08:53:00.627Z,10.17
2018-08-25T08:55:29.074Z,12.50
2018-08-25T08:57:57.591Z,11.10
2018-08-25T09:00:26.092Z,9.63
2018-08-25T09:02:54.551Z,11.53
2018-08-25T09:05:23.016Z,9.80
2018-08-25T09:07:51.420Z,12.33
2018-08-25T09:10:19.954Z,8.27
2018-08-25T09:12:48.362Z,11.97
2018-08-25T09:15:16.840Z,8.73
2018-08-25T09:17:45.316Z,10.37
2018-08-25T09:20:13.879Z,11.43
2018-08-25T09:22:42.317Z,9.27
2018-08-25T09:25:10.833Z,13.00
2018-08-25T09:27:39.308Z,9.77
2018-08-25T09:30:08.672Z,9.17
2018-08-25T09:32:37.126Z,7.07
2018-08-25T09:35:05.931Z,9.17
2018-08-25T09:37:34.673Z,8.70
2018-08-25T09:40:03.082Z,9.93
2018-08-25T09:42:31.631Z,10.70
2018-08-25T09:45:00.131Z,10.87
2018-08-25T09:47:28.677Z,7.53
2018-08-25T09:49:57.269Z,8.10
2018-08-25T09:52:25.823Z,10.63
2018-08-25T09:54:54.305Z,7.77
2018-08-25T09:57:22.785Z,7.93
2018-08-25T09:59:51.245Z,7.50
2018-08-25T10:02:19.807Z,9.63
2018-08-25T10:04:48.367Z,10.73
2018-08-25T10:07:16.814Z,8.90
2018-08-25T10:09:45.318Z,7.93
2018-08-25T10:12:13.829Z,7.43
2018-08-25T10:14:42.349Z,7.97
2018-08-25T10:17:10.902Z,8.10
2018-08-25T10:19:39.333Z,7.90
2018-08-25T10:22:07.771Z,6.73
2018-08-25T10:24:36.447Z,9.63
2018-08-25T10:27:04.972Z,10.77
2018-08-25T10:29:33.497Z,8.20
2018-08-25T10:32:02.092Z,9.60
2018-08-25T10:34:30.618Z,7.67
2018-08-25T10:36:59.155Z,6.83
2018-08-25T10:39:27.772Z,8.57
2018-08-25T10:41:56.333Z,8.93
2018-08-25T10:44:25.388Z,8.53
2018-08-25T10:46:53.860Z,8.10
2018-08-25T10:49:22.297Z,7.87
2018-08-25T10:51:50.824Z,8.67
2018-08-25T10:54:19.267Z,7.30
2018-08-25T10:56:47.734Z,9.27
2018-08-25T10:59:16.202Z,9.23
2018-08-25T11:01:44.731Z,9.47
2018-08-25T11:04:13.337Z,8.47
2018-08-25T11:06:41.916Z,7.00
2018-08-25T11:09:12.674Z,8.60
2018-08-25T11:11:41.168Z,8.03
2018-08-25T11:14:09.625Z,11.60
2018-08-25T11:16:38.135Z,7.93
2018-08-25T11:19:06.858Z,10.70
2018-08-25T11:21:35.779Z,7.80
2018-08-25T11:24:04.329Z,9.23
2018-08-25T11:26:33.158Z,8.07
2018-08-25T11:29:01.890Z,8.57
2018-08-25T11:31:30.397Z,9.67
2018-08-25T11:33:58.937Z,11.30
2018-08-25T11:36:27.503Z,7.43
2018-08-25T11:38:56.018Z,7.93
2018-08-25T11:41:24.801Z,6.87
2018-08-25T11:43:53.409Z,7.03
2018-08-25T11:46:21.941Z,8.30
2018-08-25T11:48:50.423Z,7.00
2018-08-25T11:51:18.983Z,8.07
2018-08-25T11:53:47.441Z,8.70
2018-08-25T11:56:15.851Z,8.20
2018-08-25T11:58:44.300Z,6.90
2018-08-25T12:01:12.774Z,6.27
2018-08-25T12:03:41.329Z,6.70
2018-08-25T12:06:10.130Z,7.83
2018-08-25T12:08:38.624Z,7.20
2018-08-25T12:11:07.102Z,7.67
2018-08-25T12:13:35.567Z,9.87
2018-08-25T12:16:04.090Z,9.23
2018-08-25T12:18:32.684Z,7.50
2018-08-25T12:21:01.189Z,7.80
2018-08-25T12:23:29.714Z,6.67
2018-08-25T12:25:58.417Z,5.90
2018-08-25T12:28:26.955Z,9.53
2018-08-25T12:30:55.749Z,5.83
2018-08-25T12:33:24.271Z,6.63
2018-08-25T12:35:52.759Z,7.03
2018-08-25T12:38:21.271Z,5.67
2018-08-25T12:40:49.809Z,7.47
2018-08-25T12:43:18.382Z,6.10
2018-08-25T12:45:46.889Z,8.20
2018-08-25T12:48:15.632Z,8.00
2018-08-25T12:50:44.152Z,8.97
2018-08-25T12:53:12.641Z,8.00
2018-08-25T12:55:41.149Z,5.57
2018-08-25T12:58:09.667Z,8.27
2018-08-25T13:00:38.101Z,9.27
2018-08-25T13:03:06.649Z,10.50
2018-08-25T13:05:35.093Z,5.77
2018-08-25T13:08:03.785Z,10.97
2018-08-25T13:10:32.213Z,8.40
2018-08-25T13:13:00.803Z,9.03
2018-08-25T13:15:29.322Z,8.57
2018-08-25T13:17:57.784Z,7.80
2018-08-25T13:20:26.304Z,6.07
2018-08-25T13:22:54.834Z,6.03
2018-08-25T13:25:23.513Z,5.27
2018-08-25T13:27:52.030Z,6.27
2018-08-25T13:30:20.598Z,8.53
2018-08-25T13:32:49.237Z,5.37
2018-08-25T13:35:17.716Z,9.13
2018-08-25T13:37:46.169Z,9.70
2018-08-25T13:40:15.004Z,7.70
2018-08-25T13:42:43.465Z,7.67
2018-08-25T13:45:12.089Z,5.40
2018-08-25T13:47:40.578Z,4.80
2018-08-25T13:50:09.052Z,6.80
2018-08-25T13:52:37.679Z,4.50
2018-08-25T13:55:06.227Z,5.10
2018-08-25T13:57:34.699Z,4.77
2018-08-25T14:00:03.349Z,5.90
2018-08-25T14:02:32.038Z,4.77
2018-08-25T14:05:00.800Z,7.63
2018-08-25T14:07:29.279Z,7.17
2018-08-25T14:09:57.926Z,4.87
2018-08-25T14:12:26.423Z,7.47
2018-08-25T14:14:55.070Z,5.97
2018-08-25T14:17:23.509Z,6.57
2018-08-25T14:19:52.009Z,4.80
2018-08-25T14:22:20.410Z,6.23
2018-08-25T14:24:49.007Z,5.07
2018-08-25T14:27:17.489Z,4.50
2018-08-25T14:29:45.904Z,6.10
2018-08-25T14:32:14.352Z,4.87
2018-08-25T14:34:42.866Z,3.87
2018-08-25T14:37:11.305Z,5.27
2018-08-25T14:39:39.813Z,4.93
2018-08-25T14:42:08.360Z,5.47
2018-08-25T14:44:36.981Z,6.00
2018-08-25T14:47:05.740Z,3.80
2018-08-25T14:49:34.478Z,4.00
2018-08-25T14:52:02.916Z,4.93
2018-08-25T14:54:31.446Z,5.60
2018-08-25T14:57:00.016Z,5.00
2018-08-25T14:59:28.443Z,2.90
2018-08-25T15:01:57.059Z,3.73
2018-08-25T15:04:25.514Z,4.30
2018-08-25T15:06:54.063Z,4.57
2018-08-25T15:09:22.508Z,4.23
2018-08-25T15:11:51.001Z,6.00
2018-08-25T15:14:19.466Z,5.00
2018-08-25T15:16:47.889Z,4.97
2018-08-25T15:19:16.363Z,4.83
2018-08-25T15:21:44.814Z,4.93
2018-08-25T15:24:13.293Z,4.83
2018-08-25T15:26:41.913Z,4.37
2018-08-25T15:29:10.474Z,5.40
2018-08-25T15:31:38.956Z,6.43
2018-08-25T15:34:08.366Z,7.33
2018-08-25T15:36:36.906Z,7.53
2018-08-25T15:39:09.249Z,5.90
2018-08-25T15:41:37.682Z,4.77
2018-08-25T15:44:06.296Z,6.90
2018-08-25T15:46:34.716Z,4.83
2018-08-25T15:49:03.200Z,6.27
2018-08-25T15:51:31.642Z,7.07
2018-08-25T15:54:00.064Z,6.60
2018-08-25T15:56:28.549Z,5.33
2018-08-25T15:58:57.122Z,6.67
2018-08-25T16:01:25.668Z,5.97
2018-08-25T16:03:54.374Z,10.37
2018-08-25T16:06:22.831Z,5.17
2018-08-25T16:08:51.291Z,7.70
2018-08-25T16:11:19.803Z,6.63
2018-08-25T16:13:48.302Z,5.17
2018-08-25T16:16:16.820Z,8.73
2018-08-25T16:18:45.244Z,6.70
2018-08-25T16:21:13.683Z,5.67
2018-08-25T16:23:42.187Z,5.20
2018-08-25T16:26:10.604Z,6.07
2018-08-25T16:28:39.039Z,5.60
2018-08-25T16:31:07.532Z,6.97
2018-08-25T16:33:36.036Z,6.27
2018-08-25T16:36:04.569Z,6.50
2018-08-25T16:38:32.990Z,5.47
2018-08-25T16:41:01.416Z,6.30
2018-08-25T16:43:30.061Z,8.00
2018-08-25T16:45:58.528Z,4.03
2018-08-25T16:48:27.110Z,5.23
2018-08-25T16:50:55.836Z,6.50
2018-08-25T16:53:24.851Z,7.67
2018-08-25T16:55:53.473Z,6.90
2018-08-25T16:58:21.901Z,4.37
2018-08-25T17:00:50.373Z,5.97
2018-08-25T17:03:18.838Z,6.90
2018-08-25T17:05:47.260Z,8.23
2018-08-25T17:08:15.715Z,6.70
2018-08-25T17:10:44.146Z,7.77
2018-08-25T17:13:12.603Z,5.77
2018-08-25T17:15:41.097Z,5.73
2018-08-25T17:18:09.630Z,5.63
2018-08-25T17:20:38.191Z,6.37
2018-08-25T17:23:06.660Z,5.67
2018-08-25T17:25:35.380Z,4.27
2018-08-25T17:28:03.978Z,8.23
2018-08-25T17:30:32.592Z,6.37
2018-08-25T17:33:01.106Z,7.13
2018-08-25T17:35:29.560Z,6.83
2018-08-25T17:37:58.391Z,7.70
2018-08-25T17:40:26.872Z,7.17
2018-08-25T17:42:55.313Z,7.20
2018-08-25T17:45:24.072Z,7.27
2018-08-25T17:47:52.813Z,8.43
2018-08-25T17:50:21.277Z,8.20
2018-08-25T17:52:49.765Z,6.90
2018-08-25T17:55:18.320Z,10.50
2018-08-25T17:57:46.965Z,5.17
2018-08-25T18:00:15.953Z,8.20
2018-08-25T18:02:44.455Z,8.23
2018-08-25T18:05:13.465Z,7.93
2018-08-25T18:07:42.093Z,6.67
2018-08-25T18:10:10.876Z,8.07
2018-08-25T18:12:39.434Z,7.10
2018-08-25T18:15:08.107Z,6.10
2018-08-25T18:17:36.765Z,6.33
2018-08-25T18:20:05.274Z,7.33
2018-08-25T18:22:34.056Z,7.50
2018-08-25T18:25:02.634Z,6.40
2018-08-25T18:27:31.160Z,8.40
2018-08-25T18:29:59.740Z,6.67
2018-08-25T18:32:28.251Z,8.60
2018-08-25T18:34:56.916Z,6.40
2018-08-25T18:37:25.536Z,9.70
2018-08-25T18:39:54.035Z,5.50
2018-08-25T18:42:22.772Z,26.53
2018-08-25T18:44:51.297Z,10.37
2018-08-25T18:47:20.424Z,10.43
2018-08-25T18:49:48.994Z,16.47
2018-08-25T18:52:17.504Z,12.50
2018-08-25T18:54:46.093Z,24.07
2018-08-25T18:57:14.683Z,21.10
2018-08-25T18:59:43.158Z,18.53
2018-08-25T19:02:11.859Z,9.43
2018-08-25T19:04:40.383Z,12.27
2018-08-25T19:07:08.944Z,10.43
2018-08-25T19:09:37.467Z,6.63
2018-08-25T19:12:06.077Z,34.57
2018-08-25T19:14:34.940Z,8.73
2018-08-25T19:17:03.531Z,44.23
2018-08-25T19:19:32.388Z,35.13
2018-08-25T19:22:01.050Z,107.03
2018-08-25T19:24:29.644Z,233.20
2018-08-25T19:26:58.187Z,123.10
2018-08-25T19:29:26.777Z,10.20
2018-08-25T19:31:55.339Z,71.00
2018-08-25T19:34:23.904Z,106.40
2018-08-25T19:36:52.455Z,15.87
2018-08-25T19:39:21.004Z,9.07
2018-08-25T19:41:49.488Z,10.57
2018-08-25T19:44:18.022Z,13.07
2018-08-25T19:46:46.525Z,10.43
2018-08-25T19:49:14.993Z,8.63
2018-08-25T19:51:43.602Z,15.30
2018-08-25T19:54:12.196Z,11.47
2018-08-25T19:56:40.780Z,26.33
2018-08-25T19:59:09.388Z,34.10
2018-08-25T20:01:37.958Z,35.33
2018-08-25T20:04:06.597Z,25.47
2018-08-25T20:06:35.145Z,23.17
2018-08-25T20:09:04.974Z,16.40
2018-08-25T20:11:33.749Z,34.93
2018-08-25T20:14:02.386Z,87.70
2018-08-25T20:16:31.090Z,21.00
2018-08-25T20:18:59.922Z,12.33
2018-08-25T20:21:29.297Z,20.40
2018-08-25T20:23:58.555Z,11.47
2018-08-25T20:26:28.055Z,15.20
2018-08-25T20:28:56.670Z,8.23
2018-08-25T20:31:25.758Z,10.47
2018-08-25T20:33:54.294Z,12.40
2018-08-25T20:36:23.867Z,12.13
2018-08-25T20:38:52.407Z,11.53
2018-08-25T20:41:20.871Z,10.40
2018-08-25T20:43:49.431Z,15.03
2018-08-25T20:46:18.033Z,9.97
2018-08-25T20:48:46.682Z,9.57
2018-08-25T20:51:15.392Z,11.20
2018-08-25T20:53:43.942Z,8.80
2018-08-25T20:56:13.494Z,6.90
2018-08-25T20:58:43.712Z,8.13
2018-08-25T21:01:12.293Z,18.03
2018-08-25T21:03:41.049Z,16.07
2018-08-25T21:06:09.634Z,13.07
2018-08-25T21:08:39.093Z,57.70
2018-08-25T21:11:09.553Z,67.73
2018-08-25T21:13:42.047Z,10.93
2018-08-25T21:16:15.959Z,4.70
2018-08-25T21:18:44.899Z,3.30
2018-08-25T21:21:15.967Z,4.10
2018-08-25T21:23:46.442Z,2.53
2018-08-25T21:26:16.485Z,3.97
2018-08-25T21:28:46.395Z,2.93
2018-08-25T21:31:15.759Z,2.90
2018-08-25T21:33:45.467Z,2.70
2018-08-25T21:36:15.372Z,3.43
2018-08-25T21:38:43.892Z,4.90
2018-08-25T21:41:12.559Z,3.43
2018-08-25T21:43:41.089Z,3.70
2018-08-25T21:46:09.659Z,5.77
2018-08-25T21:48:39.832Z,2.30
2018-08-25T21:51:09.780Z,3.93
2018-08-25T21:53:38.831Z,3.57
2018-08-25T21:56:08.078Z,2.37
2018-08-25T21:58:37.071Z,3.50
2018-08-25T22:01:07.540Z,2.57
2018-08-25T22:03:37.000Z,6.13
2018-08-25T22:06:05.796Z,4.93
2018-08-25T22:08:37.861Z,3.00
2018-08-25T22:11:06.389Z,3.30
2018-08-25T22:13:34.868Z,4.00
2018-08-25T22:16:03.344Z,6.23
2018-08-25T22:18:31.850Z,7.00
2018-08-25T22:21:00.419Z,4.80
2018-08-25T22:23:28.884Z,6.83
2018-08-25T22:25:57.419Z,5.33
2018-08-25T22:28:25.859Z,4.97
2018-08-25T22:30:54.376Z,6.23
2018-08-25T22:33:22.863Z,6.30
2018-08-25T22:35:51.576Z,6.37
2018-08-25T22:38:20.212Z,6.67
2018-08-25T22:40:48.772Z,7.83
2018-08-25T22:43:17.240Z,6.10
2018-08-25T22:45:45.758Z,6.53
2018-08-25T22:48:14.280Z,6.90
2018-08-25T22:50:42.740Z,6.00
2018-08-25T22:53:11.164Z,6.23
2018-08-25T22:55:39.585Z,7.13
2018-08-25T22:58:08.038Z,6.87
2018-08-25T23:00:36.549Z,9.73
2018-08-25T23:03:04.965Z,6.60
2018-08-25T23:05:33.456Z,7.17
2018-08-25T23:08:01.930Z,9.60
2018-08-25T23:10:30.334Z,7.47
2018-08-25T23:12:58.790Z,7.93
2018-08-25T23:15:27.437Z,6.40
2018-08-25T23:17:55.873Z,9.50
2018-08-25T23:20:24.359Z,13.67
2018-08-25T23:22:52.775Z,27.80
2018-08-25T23:25:21.296Z,79.87
2018-08-25T23:27:49.747Z,166.10
2018-08-25T23:30:18.219Z,54.67
2018-08-25T23:32:46.675Z,14.70
2018-08-25T23:35:15.260Z,205.47
2018-08-25T23:37:43.689Z,147.57
2018-08-25T23:40:12.177Z,322.57
2018-08-25T23:42:40.584Z,130.77
2018-08-25T23:45:09.105Z,41.47
2018-08-25T23:47:37.545Z,152.73
2018-08-25T23:50:06.478Z,33.33
2018-08-25T23:52:35.554Z,17.27
2018-08-25T23:55:05.908Z,8.73
2018-08-25T23:57:34.445Z,12.33
